PKWA/KWA METAR and TAF weather

Enter ICAO airport designator
Station Type Date Time Source
PKWA METAR 2019/11/22 01:00 UTC NOAA

PKWA 220100Z AUTO 06009KT 10SM SCT023 31/26 A2974 RMK AO2 LTG DSNT N T03090256


Station Type Date Time Source
PKWA Decoded METAR 2019/11/22 01:00 UTC NOAA

Kwajalein, Bucholz AAF, Kwajalein KMR ATOL Airport, Marshall Islands (PKWA) 08-43N 167-44E 2M
Nov 21, 2019 - 08:00 PM EST / 2019.11.22 0100 UTC
Wind: from the ENE (060 degrees) at 10 MPH (9 KT):0
Visibility: 10 mile(s):0
Sky conditions: partly cloudy
Weather: Lightning observed
Temperature: 87.6 F (30.9 C)
Heat index: 100.8 F (38.2 C):1
Dew Point: 78.1 F (25.6 C)
Relative Humidity: 73%
Pressure (altimeter): 29.74 in. Hg (1007 hPa)
ob: PKWA 220100Z AUTO 06009KT 10SM SCT023 31/26 A2974 RMK AO2 LTG DSNT N T03090256
cycle: 1

Station Type Date Time Source
PKWA TAF 2019/11/21 18:39 UTC NOAA

TAF PKWA 211734Z 2118/2218 05018KT P6SM VCSH SCT022 SCT050
TEMPO 2118/2119 -SHRA

Example: see airport list